map of JDH home
JDH - Airport
Location
City:  Jodhpur, Rajasthan, India
ICAO:VIJO
IATA:JDH

Details
Type:Airport (Aerodrome, Airfield)
Use:Military
Latitude:2615'04"N (26.251092)
Longitude:7302'56"E (73.048869)
Datum:WGS 1984
Elevation:717 ft (219 m)
Variation:1.04E (WMM2015v2 magnetic declination)
0.04 annual change
Runways:1
Longest:9005 × 150 ft (2745 × 45.5 m), paved

Time
Time Zone:UTC+5:30
Local Time:

Weather
TAF:VIJO 040930Z 0412/0424 13005KT 6000 SCT250
TEMPO 0413/0416 5000 HZ

Related Locations
Nearby:
Farthest:IPC: 12278 mi / 19760 km
Easter Island (Isla de Pascua, Rapa Nui) [Mataveri Intl], VS, CL

Find:

   beyond  
but within

Other Information
Maps:
NOTAMs:
Links:
Sources:

  
  • flag of India
  

Sectional Chart

Flight Planning
at skyvector.com

Satellite Image

Google Maps Satellite view

 

Copyright © 2004-2019 Karl L. Swartz. All rights reserved.
The Great Circle Mapper name and logo are trademarks of the Great Circle Mapper.
All other trademarks mentioned herein belong to their respective owners.
Please see credits for attibutions and further copyright information.

  Follow gcmap on Facebook Follow gcmap on Twitter GCmap on LinkedIn

hCard Microformat

Geo Microformat